WAT2918 LPPT-DAAG
Flight info
| Callsign | WAT2918 |
|---|---|
| Flight time | 1h 26m |
| Altitude | 38000 |
| Route | DUZOP DCT LASIB/N0470F390 DCT OXACA DCT ALCOL DCT KOSEL DCT DIMER DCT RINDI DCT MAR |
| Aircraft | A346/H-SDE2E3FGHIJ3J4J5M1RWXY/LB1D1 |
Departure
| Time | 2026-05-04 17:04 |
|---|---|
| Airport | Lisbon Humberto Delgado Airport (LPPT) |
Arrival
| Time | 2026-05-04 18:31 |
|---|---|
| Airport | Houari Boumediene Airport (DAAG) |
| Time | Latitude | Longitude | Altitude | Speed | Heading |
|---|---|---|---|---|---|
| 2026-05-04 16:49 | 38.76785 | -9.13545 | 346 ft | 0 kts | 258° |
| 2026-05-04 16:58 | 38.76788 | -9.13529 | 346 ft | 2 kts | 244° |
| 2026-05-04 16:59 | 38.76807 | -9.13499 | 345 ft | 2 kts | 216° |
| 2026-05-04 17:00 | 38.76864 | -9.13483 | 344 ft | 2 kts | 166° |
| 2026-05-04 17:00 | 38.76870 | -9.13485 | 344 ft | 0 kts | 165° |
| 2026-05-04 17:01 | 38.76823 | -9.13470 | 344 ft | 8 kts | 165° |
| 2026-05-04 17:01 | 38.76681 | -9.13461 | 347 ft | 10 kts | 222° |
| 2026-05-04 17:02 | 38.76627 | -9.13671 | 348 ft | 14 kts | 256° |
| 2026-05-04 17:02 | 38.76576 | -9.13961 | 348 ft | 19 kts | 258° |
| 2026-05-04 17:03 | 38.76564 | -9.14142 | 346 ft | 21 kts | 285° |
| 2026-05-04 17:03 | 38.76622 | -9.14316 | 347 ft | 18 kts | 306° |
| 2026-05-04 17:03 | 38.76859 | -9.14282 | 351 ft | 66 kts | 24° |
| 2026-05-04 17:04 | 38.78686 | -9.13251 | 830 ft | 185 kts | 23° |
| 2026-05-04 17:04 | 38.80916 | -9.11685 | 2911 ft | 189 kts | 25° |
| 2026-05-04 17:05 | 38.83424 | -9.09983 | 4149 ft | 223 kts | 24° |
| 2026-05-04 17:05 | 38.86425 | -9.07992 | 5437 ft | 260 kts | 27° |
| 2026-05-04 17:06 | 38.88296 | -9.04027 | 7233 ft | 284 kts | 86° |
| 2026-05-04 17:06 | 38.87917 | -9.01524 | 8152 ft | 293 kts | 114° |
| 2026-05-04 17:07 | 38.85376 | -8.97494 | 9902 ft | 302 kts | 153° |
| 2026-05-04 17:07 | 38.84061 | -8.96857 | 10478 ft | 302 kts | 171° |
| 2026-05-04 17:07 | 38.81269 | -8.97125 | 11236 ft | 312 kts | 205° |
| 2026-05-04 17:07 | 38.79230 | -8.98292 | 11742 ft | 328 kts | 208° |
| 2026-05-04 17:08 | 38.77079 | -8.99519 | 12208 ft | 347 kts | 207° |
| 2026-05-04 17:08 | 38.72389 | -9.02097 | 13118 ft | 383 kts | 207° |
| 2026-05-04 17:08 | 38.69917 | -9.03426 | 13888 ft | 389 kts | 207° |
| 2026-05-04 17:09 | 38.67408 | -9.04769 | 14780 ft | 392 kts | 207° |
| 2026-05-04 17:09 | 38.64869 | -9.06128 | 15655 ft | 395 kts | 207° |
| 2026-05-04 17:09 | 38.62393 | -9.07451 | 16463 ft | 398 kts | 207° |
| 2026-05-04 17:10 | 38.57245 | -9.10200 | 18113 ft | 404 kts | 207° |
| 2026-05-04 17:10 | 38.49360 | -9.14399 | 20266 ft | 416 kts | 208° |
| 2026-05-04 17:11 | 38.46655 | -9.15829 | 20953 ft | 421 kts | 207° |
| 2026-05-04 17:11 | 38.43741 | -9.16717 | 21556 ft | 440 kts | 189° |
| 2026-05-04 17:11 | 38.37674 | -9.14636 | 22819 ft | 473 kts | 152° |
| 2026-05-04 17:12 | 38.34977 | -9.12211 | 23451 ft | 478 kts | 149° |
| 2026-05-04 17:12 | 38.29500 | -9.07303 | 24557 ft | 488 kts | 149° |
| 2026-05-04 17:13 | 38.20998 | -8.99843 | 26165 ft | 501 kts | 150° |
| 2026-05-04 17:14 | 38.12243 | -8.92214 | 27681 ft | 513 kts | 150° |
| 2026-05-04 17:14 | 38.09248 | -8.89736 | 28159 ft | 515 kts | 153° |
| 2026-05-04 17:14 | 38.03002 | -8.85462 | 29603 ft | 505 kts | 161° |
| 2026-05-04 17:15 | 37.99771 | -8.83617 | 30343 ft | 501 kts | 162° |
| 2026-05-04 17:15 | 37.93379 | -8.80026 | 31065 ft | 500 kts | 162° |
| 2026-05-04 17:16 | 37.86949 | -8.76407 | 31070 ft | 500 kts | 162° |
| 2026-05-04 17:17 | 37.74471 | -8.68536 | 31048 ft | 516 kts | 142° |
| 2026-05-04 17:17 | 37.69928 | -8.56300 | 31064 ft | 530 kts | 90° |
| 2026-05-04 17:18 | 37.70298 | -8.51696 | 31058 ft | 526 kts | 73° |
| 2026-05-04 17:19 | 37.75051 | -8.34307 | 31058 ft | 524 kts | 68° |
| 2026-05-04 17:19 | 37.77388 | -8.25530 | 31425 ft | 531 kts | 69° |
| 2026-05-04 17:20 | 37.79647 | -8.16869 | 32840 ft | 523 kts | 69° |
| 2026-05-04 17:20 | 37.81918 | -8.08114 | 33940 ft | 522 kts | 69° |
| 2026-05-04 17:20 | 37.83050 | -8.03738 | 34389 ft | 522 kts | 69° |
| 2026-05-04 17:21 | 37.85316 | -7.94955 | 35266 ft | 523 kts | 69° |
| 2026-05-04 17:21 | 37.87568 | -7.86203 | 36128 ft | 523 kts | 69° |
| 2026-05-04 17:22 | 37.88687 | -7.81840 | 36577 ft | 523 kts | 70° |
| 2026-05-04 17:22 | 37.89810 | -7.77449 | 36952 ft | 525 kts | 69° |
| 2026-05-04 17:23 | 37.94326 | -7.59716 | 37020 ft | 529 kts | 69° |
| 2026-05-04 17:24 | 37.97716 | -7.46323 | 37013 ft | 529 kts | 70° |
| 2026-05-04 17:25 | 38.01942 | -7.28418 | 37010 ft | 531 kts | 77° |
| 2026-05-04 17:26 | 38.02968 | -7.09736 | 37014 ft | 531 kts | 95° |
| 2026-05-04 17:27 | 38.01286 | -6.86262 | 37834 ft | 534 kts | 96° |
| 2026-05-04 17:27 | 38.00621 | -6.76785 | 38009 ft | 537 kts | 96° |
| 2026-05-04 17:28 | 37.99951 | -6.67261 | 38009 ft | 537 kts | 96° |
| 2026-05-04 17:29 | 37.97910 | -6.38906 | 37994 ft | 537 kts | 96° |
| 2026-05-04 17:31 | 37.96160 | -6.15309 | 37990 ft | 536 kts | 97° |
| 2026-05-04 17:32 | 37.94473 | -5.91661 | 38008 ft | 537 kts | 96° |
| 2026-05-04 17:33 | 37.93402 | -5.72713 | 37988 ft | 537 kts | 96° |
| 2026-05-04 17:34 | 37.92262 | -5.53772 | 37996 ft | 537 kts | 96° |
| 2026-05-04 17:35 | 37.90787 | -5.30039 | 37984 ft | 538 kts | 96° |
| 2026-05-04 17:36 | 37.90186 | -5.20579 | 37976 ft | 538 kts | 97° |
| 2026-05-04 17:36 | 37.89576 | -5.11097 | 37975 ft | 537 kts | 97° |
| 2026-05-04 17:37 | 37.88958 | -5.01615 | 37978 ft | 538 kts | 97° |
| 2026-05-04 17:37 | 37.88330 | -4.92102 | 37982 ft | 538 kts | 97° |
| 2026-05-04 17:38 | 37.87697 | -4.82634 | 37980 ft | 539 kts | 97° |
| 2026-05-04 17:38 | 37.87053 | -4.73115 | 37985 ft | 539 kts | 97° |
| 2026-05-04 17:39 | 37.86077 | -4.58920 | 37977 ft | 540 kts | 97° |
| 2026-05-04 17:39 | 37.85437 | -4.49522 | 37972 ft | 540 kts | 96° |
| 2026-05-04 17:40 | 37.84939 | -4.40030 | 37972 ft | 540 kts | 95° |
| 2026-05-04 17:40 | 37.84464 | -4.30558 | 37968 ft | 541 kts | 96° |
| 2026-05-04 17:41 | 37.83971 | -4.21133 | 37968 ft | 540 kts | 96° |
| 2026-05-04 17:41 | 37.83456 | -4.11644 | 37968 ft | 540 kts | 96° |
| 2026-05-04 17:42 | 37.82934 | -4.02208 | 37968 ft | 540 kts | 96° |
| 2026-05-04 17:42 | 37.82404 | -3.92739 | 37974 ft | 540 kts | 96° |
| 2026-05-04 17:43 | 37.81869 | -3.83278 | 37975 ft | 540 kts | 96° |
| 2026-05-04 17:43 | 37.81320 | -3.73784 | 37976 ft | 540 kts | 96° |
| 2026-05-04 17:44 | 37.80769 | -3.64332 | 37983 ft | 540 kts | 96° |
| 2026-05-04 17:44 | 37.80213 | -3.54923 | 37998 ft | 541 kts | 96° |
| 2026-05-04 17:45 | 37.79643 | -3.45419 | 38002 ft | 541 kts | 96° |
| 2026-05-04 17:45 | 37.79061 | -3.35885 | 37997 ft | 541 kts | 96° |
| 2026-05-04 17:46 | 37.78475 | -3.26341 | 38002 ft | 542 kts | 97° |
| 2026-05-04 17:46 | 37.77879 | -3.16799 | 37990 ft | 543 kts | 97° |
| 2026-05-04 17:47 | 37.77277 | -3.07264 | 38005 ft | 543 kts | 97° |
| 2026-05-04 17:47 | 37.76665 | -2.97737 | 38009 ft | 542 kts | 97° |
| 2026-05-04 17:48 | 37.76042 | -2.88162 | 38010 ft | 542 kts | 98° |
| 2026-05-04 17:48 | 37.74939 | -2.78767 | 38011 ft | 539 kts | 105° |
| 2026-05-04 17:49 | 37.72899 | -2.69563 | 38015 ft | 535 kts | 113° |
| 2026-05-04 17:49 | 37.70469 | -2.60666 | 38005 ft | 535 kts | 114° |
| 2026-05-04 17:50 | 37.68005 | -2.51666 | 38004 ft | 536 kts | 113° |
| 2026-05-04 17:50 | 37.65559 | -2.42685 | 37999 ft | 536 kts | 113° |
| 2026-05-04 17:51 | 37.63133 | -2.33749 | 38002 ft | 536 kts | 114° |
| 2026-05-04 17:51 | 37.60709 | -2.24854 | 37994 ft | 536 kts | 114° |
| 2026-05-04 17:52 | 37.58279 | -2.15966 | 37993 ft | 535 kts | 114° |
| 2026-05-04 17:52 | 37.55833 | -2.07050 | 37981 ft | 535 kts | 114° |
| 2026-05-04 17:53 | 37.53362 | -1.98083 | 37980 ft | 535 kts | 114° |
| 2026-05-04 17:53 | 37.50911 | -1.89216 | 37976 ft | 536 kts | 114° |
| 2026-05-04 17:54 | 37.48438 | -1.80286 | 37940 ft | 535 kts | 114° |
| 2026-05-04 17:54 | 37.45953 | -1.71366 | 37938 ft | 535 kts | 114° |
| 2026-05-04 17:55 | 37.43486 | -1.62522 | 37922 ft | 534 kts | 114° |
| 2026-05-04 17:55 | 37.41024 | -1.53721 | 37919 ft | 533 kts | 114° |
| 2026-05-04 17:56 | 37.38533 | -1.44859 | 37915 ft | 533 kts | 114° |
| 2026-05-04 17:56 | 37.36036 | -1.35994 | 37925 ft | 532 kts | 114° |
| 2026-05-04 17:57 | 37.33549 | -1.27196 | 37907 ft | 532 kts | 115° |
| 2026-05-04 17:57 | 37.31100 | -1.18402 | 37908 ft | 533 kts | 112° |
| 2026-05-04 17:58 | 37.29224 | -1.09325 | 37912 ft | 537 kts | 107° |
| 2026-05-04 17:58 | 37.27610 | -1.00107 | 37908 ft | 538 kts | 106° |
| 2026-05-04 17:59 | 37.25991 | -0.90900 | 37900 ft | 538 kts | 106° |
| 2026-05-04 18:00 | 37.23512 | -0.77056 | 37904 ft | 538 kts | 107° |
| 2026-05-04 18:00 | 37.21863 | -0.67919 | 37912 ft | 538 kts | 107° |
| 2026-05-04 18:01 | 37.20191 | -0.58709 | 37919 ft | 538 kts | 107° |
| 2026-05-04 18:01 | 37.18532 | -0.49591 | 37921 ft | 537 kts | 107° |
| 2026-05-04 18:02 | 37.16003 | -0.35805 | 37920 ft | 537 kts | 107° |
| 2026-05-04 18:02 | 37.14315 | -0.26624 | 37921 ft | 537 kts | 108° |
| 2026-05-04 18:03 | 37.12628 | -0.17522 | 37940 ft | 537 kts | 108° |
| 2026-05-04 18:03 | 37.10920 | -0.08349 | 37316 ft | 540 kts | 107° |
| 2026-05-04 18:04 | 37.10174 | -0.03708 | 36619 ft | 541 kts | 104° |
| 2026-05-04 18:04 | 37.09524 | 0.00975 | 36141 ft | 536 kts | 104° |
| 2026-05-04 18:04 | 37.08309 | 0.10047 | 35387 ft | 529 kts | 104° |
| 2026-05-04 18:05 | 37.07683 | 0.14655 | 34962 ft | 529 kts | 104° |
| 2026-05-04 18:05 | 37.07068 | 0.19169 | 34539 ft | 530 kts | 105° |
| 2026-05-04 18:05 | 37.06440 | 0.23733 | 34023 ft | 531 kts | 105° |
| 2026-05-04 18:05 | 37.05818 | 0.28230 | 33358 ft | 532 kts | 104° |
| 2026-05-04 18:06 | 37.04553 | 0.37327 | 32138 ft | 531 kts | 104° |
| 2026-05-04 18:06 | 37.03923 | 0.41850 | 31541 ft | 530 kts | 104° |
| 2026-05-04 18:06 | 37.03282 | 0.46447 | 30928 ft | 528 kts | 104° |
| 2026-05-04 18:07 | 37.02652 | 0.50953 | 30380 ft | 525 kts | 104° |
| 2026-05-04 18:07 | 37.02028 | 0.55387 | 29840 ft | 523 kts | 104° |
| 2026-05-04 18:07 | 37.01393 | 0.59892 | 29237 ft | 523 kts | 104° |
| 2026-05-04 18:07 | 37.00763 | 0.64367 | 28542 ft | 524 kts | 104° |
| 2026-05-04 18:08 | 37.00131 | 0.68836 | 27845 ft | 523 kts | 105° |
| 2026-05-04 18:08 | 36.99496 | 0.73317 | 27205 ft | 521 kts | 105° |
| 2026-05-04 18:08 | 36.98865 | 0.77756 | 26719 ft | 515 kts | 105° |
| 2026-05-04 18:08 | 36.98244 | 0.82128 | 26237 ft | 510 kts | 105° |
| 2026-05-04 18:09 | 36.97008 | 0.90763 | 25269 ft | 501 kts | 105° |
| 2026-05-04 18:09 | 36.95782 | 0.99254 | 24338 ft | 491 kts | 105° |
| 2026-05-04 18:10 | 36.95176 | 1.03452 | 23881 ft | 487 kts | 106° |
| 2026-05-04 18:10 | 36.94571 | 1.07617 | 23393 ft | 483 kts | 105° |
| 2026-05-04 18:10 | 36.93971 | 1.11726 | 22912 ft | 479 kts | 106° |
| 2026-05-04 18:10 | 36.93379 | 1.15771 | 22490 ft | 474 kts | 105° |
| 2026-05-04 18:11 | 36.92785 | 1.19823 | 22025 ft | 470 kts | 105° |
| 2026-05-04 18:11 | 36.92194 | 1.23847 | 21563 ft | 466 kts | 105° |
| 2026-05-04 18:11 | 36.91611 | 1.27812 | 21107 ft | 462 kts | 105° |
| 2026-05-04 18:11 | 36.91036 | 1.31721 | 20653 ft | 458 kts | 105° |
| 2026-05-04 18:12 | 36.90449 | 1.35674 | 20175 ft | 455 kts | 105° |
| 2026-05-04 18:12 | 36.89875 | 1.39557 | 19734 ft | 451 kts | 105° |
| 2026-05-04 18:12 | 36.89311 | 1.43373 | 19269 ft | 448 kts | 105° |
| 2026-05-04 18:12 | 36.88743 | 1.47174 | 18825 ft | 445 kts | 104° |
| 2026-05-04 18:13 | 36.88177 | 1.50971 | 18382 ft | 441 kts | 104° |
| 2026-05-04 18:13 | 36.87615 | 1.54734 | 17934 ft | 439 kts | 104° |
| 2026-05-04 18:13 | 36.86499 | 1.62190 | 17010 ft | 434 kts | 104° |
| 2026-05-04 18:14 | 36.85944 | 1.65889 | 16559 ft | 431 kts | 105° |
| 2026-05-04 18:14 | 36.85393 | 1.69542 | 16111 ft | 428 kts | 104° |
| 2026-05-04 18:14 | 36.84845 | 1.73174 | 15627 ft | 426 kts | 104° |
| 2026-05-04 18:15 | 36.83753 | 1.80384 | 14730 ft | 420 kts | 104° |
| 2026-05-04 18:15 | 36.82667 | 1.87521 | 13825 ft | 415 kts | 104° |
| 2026-05-04 18:15 | 36.82128 | 1.91054 | 13353 ft | 413 kts | 104° |
| 2026-05-04 18:16 | 36.81590 | 1.94572 | 12903 ft | 410 kts | 104° |
| 2026-05-04 18:16 | 36.81059 | 1.98034 | 12430 ft | 408 kts | 104° |
| 2026-05-04 18:16 | 36.80522 | 2.01521 | 11965 ft | 406 kts | 104° |
| 2026-05-04 18:17 | 36.79463 | 2.08395 | 11052 ft | 399 kts | 104° |
| 2026-05-04 18:17 | 36.78942 | 2.11774 | 10730 ft | 393 kts | 104° |
| 2026-05-04 18:17 | 36.77960 | 2.18168 | 10320 ft | 348 kts | 104° |
| 2026-05-04 18:18 | 36.77523 | 2.21021 | 10239 ft | 324 kts | 104° |
| 2026-05-04 18:18 | 36.77098 | 2.23745 | 10272 ft | 319 kts | 104° |
| 2026-05-04 18:18 | 36.76674 | 2.26454 | 10191 ft | 318 kts | 104° |
| 2026-05-04 18:18 | 36.76249 | 2.29162 | 10140 ft | 316 kts | 104° |
| 2026-05-04 18:19 | 36.75403 | 2.34537 | 9833 ft | 314 kts | 104° |
| 2026-05-04 18:19 | 36.74989 | 2.37171 | 9473 ft | 312 kts | 105° |
| 2026-05-04 18:19 | 36.74566 | 2.39861 | 9166 ft | 309 kts | 104° |
| 2026-05-04 18:20 | 36.74159 | 2.42449 | 8850 ft | 307 kts | 104° |
| 2026-05-04 18:20 | 36.73746 | 2.45073 | 8503 ft | 304 kts | 104° |
| 2026-05-04 18:20 | 36.73341 | 2.47640 | 8208 ft | 300 kts | 104° |
| 2026-05-04 18:20 | 36.72944 | 2.50159 | 7941 ft | 297 kts | 104° |
| 2026-05-04 18:21 | 36.72545 | 2.52689 | 7610 ft | 293 kts | 104° |
| 2026-05-04 18:21 | 36.72153 | 2.55153 | 7338 ft | 290 kts | 104° |
| 2026-05-04 18:21 | 36.71770 | 2.57574 | 7056 ft | 287 kts | 104° |
| 2026-05-04 18:21 | 36.71379 | 2.60031 | 6760 ft | 285 kts | 104° |
| 2026-05-04 18:22 | 36.70996 | 2.62432 | 6466 ft | 283 kts | 104° |
| 2026-05-04 18:22 | 36.70614 | 2.64826 | 6187 ft | 280 kts | 104° |
| 2026-05-04 18:22 | 36.70237 | 2.67180 | 5887 ft | 278 kts | 104° |
| 2026-05-04 18:22 | 36.69857 | 2.69551 | 5598 ft | 274 kts | 104° |
| 2026-05-04 18:23 | 36.69490 | 2.71841 | 5353 ft | 271 kts | 104° |
| 2026-05-04 18:23 | 36.69120 | 2.74152 | 5077 ft | 268 kts | 103° |
| 2026-05-04 18:23 | 36.68759 | 2.76404 | 4807 ft | 266 kts | 102° |
| 2026-05-04 18:23 | 36.68590 | 2.78692 | 4533 ft | 265 kts | 91° |
| 2026-05-04 18:24 | 36.68727 | 2.80975 | 4262 ft | 263 kts | 84° |
| 2026-05-04 18:24 | 36.68961 | 2.83220 | 3987 ft | 261 kts | 83° |
| 2026-05-04 18:24 | 36.69207 | 2.85455 | 3712 ft | 259 kts | 83° |
| 2026-05-04 18:24 | 36.69443 | 2.87643 | 3497 ft | 255 kts | 83° |
| 2026-05-04 18:25 | 36.69668 | 2.89769 | 3470 ft | 241 kts | 84° |
| 2026-05-04 18:25 | 36.69765 | 2.91814 | 3484 ft | 223 kts | 90° |
| 2026-05-04 18:25 | 36.69745 | 2.93628 | 3458 ft | 197 kts | 90° |
| 2026-05-04 18:25 | 36.69733 | 2.95232 | 3382 ft | 175 kts | 90° |
| 2026-05-04 18:26 | 36.69714 | 2.96699 | 3166 ft | 163 kts | 90° |
| 2026-05-04 18:26 | 36.69687 | 2.98048 | 2943 ft | 153 kts | 90° |
| 2026-05-04 18:26 | 36.69655 | 2.99364 | 2751 ft | 148 kts | 90° |
| 2026-05-04 18:26 | 36.69623 | 3.00615 | 2566 ft | 144 kts | 91° |
| 2026-05-04 18:27 | 36.69590 | 3.01860 | 2388 ft | 143 kts | 91° |
| 2026-05-04 18:27 | 36.69557 | 3.03094 | 2218 ft | 142 kts | 91° |
| 2026-05-04 18:27 | 36.69524 | 3.04330 | 2037 ft | 141 kts | 91° |
| 2026-05-04 18:27 | 36.69493 | 3.05536 | 1853 ft | 140 kts | 91° |
| 2026-05-04 18:28 | 36.69462 | 3.06750 | 1672 ft | 140 kts | 91° |
| 2026-05-04 18:28 | 36.69430 | 3.07956 | 1483 ft | 139 kts | 91° |
| 2026-05-04 18:28 | 36.69400 | 3.09169 | 1296 ft | 140 kts | 90° |
| 2026-05-04 18:28 | 36.69370 | 3.10375 | 1110 ft | 140 kts | 91° |
| 2026-05-04 18:29 | 36.69340 | 3.11598 | 923 ft | 141 kts | 91° |
| 2026-05-04 18:29 | 36.69310 | 3.12812 | 740 ft | 141 kts | 91° |
| 2026-05-04 18:29 | 36.69280 | 3.14037 | 558 ft | 142 kts | 90° |
| 2026-05-04 18:29 | 36.69250 | 3.15262 | 373 ft | 142 kts | 90° |
| 2026-05-04 18:30 | 36.69193 | 3.17679 | 65 ft | 133 kts | 90° |
| 2026-05-04 18:30 | 36.69180 | 3.18514 | 70 ft | 63 kts | 91° |
| 2026-05-04 18:30 | 36.69170 | 3.19062 | 76 ft | 60 kts | 91° |
| 2026-05-04 18:31 | 36.69154 | 3.19592 | 73 ft | 60 kts | 87° |
| 2026-05-04 18:31 | 36.69236 | 3.19965 | 73 ft | 38 kts | 58° |
| 2026-05-04 18:31 | 36.69306 | 3.20225 | 74 ft | 22 kts | 70° |
| 2026-05-04 18:31 | 36.69407 | 3.20294 | 72 ft | 9 kts | 1° |
| 2026-05-04 18:32 | 36.69450 | 3.20317 | 73 ft | 8 kts | 33° |
| 2026-05-04 18:32 | 36.69511 | 3.20345 | 73 ft | 10 kts | 351° |
| 2026-05-04 18:32 | 36.69583 | 3.20300 | 72 ft | 6 kts | 325° |
| 2026-05-04 18:32 | 36.69593 | 3.20291 | 72 ft | 0 kts | 322° |